Time;durP1;ratioP1;P1;durP2;ratioP2;P2;SDS_P1;SDS_P2;PMS_P1;PMS_P2;Temp;Humidity;BMP_temperature;BMP_pressure;BME280_temperature;BME280_humidity;BME280_pressure;Samples;Min_cycle;Max_cycle;Signal;HPM_P1;HPM_P2
2022/06/26 00:01:33;;;;;;;8.30;7.78;;;22.60;84.40;;;;;;5042179;28;20212;-86
2022/06/26 00:03:58;;;;;;;8.40;7.95;;;22.40;87.20;;;;;;5040208;28;20200;-87
2022/06/26 00:06:24;;;;;;;9.48;8.68;;;22.20;90.80;;;;;;5027878;28;20195;-86
2022/06/26 00:08:50;;;;;;;8.23;7.55;;;21.90;92.40;;;;;;5034318;28;20213;-86
2022/06/26 00:11:16;;;;;;;7.32;6.95;;;21.40;96.50;;;;;;5036708;28;20200;-86
2022/06/26 00:13:42;;;;;;;7.80;7.40;;;21.20;98.20;;;;;;5037852;28;20193;-86
2022/06/26 00:16:08;;;;;;;6.30;5.90;;;21.10;99.20;;;;;;5034937;28;20270;-86
2022/06/26 00:18:33;;;;;;;5.72;5.32;;;20.90;99.10;;;;;;5037245;28;20216;-86
2022/06/26 00:20:59;;;;;;;5.18;4.88;;;20.80;99.00;;;;;;5032354;28;20225;-86
2022/06/26 00:23:25;;;;;;;5.22;4.93;;;20.70;99.10;;;;;;5030754;28;20248;-86
2022/06/26 00:25:50;;;;;;;4.47;4.18;;;20.70;99.00;;;;;;5040024;28;20181;-86
2022/06/26 00:28:16;;;;;;;4.50;4.20;;;20.70;97.40;;;;;;5036977;28;20301;-86
2022/06/26 00:30:42;;;;;;;4.63;4.32;;;20.70;96.00;;;;;;5030045;28;20197;-86
2022/06/26 00:33:07;;;;;;;4.10;3.80;;;20.60;94.90;;;;;;5024462;28;20552;-86
2022/06/26 00:35:33;;;;;;;4.45;4.15;;;20.70;95.80;;;;;;5030463;28;20193;-86
2022/06/26 00:37:59;;;;;;;4.65;4.13;;;20.70;93.10;;;;;;5034061;28;20239;-86
2022/06/26 00:40:25;;;;;;;4.55;4.25;;;20.80;93.50;;;;;;5033671;28;20223;-86
2022/06/26 00:42:50;;;;;;;4.47;4.28;;;20.80;92.80;;;;;;5034788;28;20213;-85
2022/06/26 00:45:16;;;;;;;4.63;4.43;;;20.90;92.70;;;;;;5031831;28;20228;-86
2022/06/26 00:47:42;;;;;;;4.35;4.07;;;20.90;91.80;;;;;;5034776;28;20189;-86
2022/06/26 00:50:08;;;;;;;4.65;4.43;;;20.90;93.10;;;;;;5033155;28;20887;-86
2022/06/26 00:52:35;;;;;;;5.40;5.13;;;20.90;92.60;;;;;;5038461;28;20209;-86
2022/06/26 00:55:01;;;;;;;4.47;4.28;;;21.00;92.50;;;;;;5035558;28;20184;-86
2022/06/26 00:57:28;;;;;;;5.07;4.78;;;20.90;93.60;;;;;;5043880;28;20264;-86
2022/06/26 00:59:56;;;;;;;5.05;4.65;;;20.90;95.90;;;;;;5041970;28;20205;-86
2022/06/26 01:02:22;;;;;;;4.15;3.95;;;20.80;96.80;;;;;;5031083;28;20193;-86
2022/06/26 01:04:48;;;;;;;4.95;4.60;;;20.70;96.30;;;;;;5035630;28;20181;-86
2022/06/26 01:07:14;;;;;;;4.70;4.50;;;20.60;96.80;;;;;;5035921;28;20181;-86
2022/06/26 01:09:41;;;;;;;4.70;4.50;;;20.60;96.90;;;;;;5032848;28;20334;-87
2022/06/26 01:12:07;;;;;;;4.82;4.53;;;20.80;97.50;;;;;;5039345;28;20188;-86
2022/06/26 01:14:32;;;;;;;5.07;4.68;;;20.90;95.80;;;;;;5041380;28;20691;-87
2022/06/26 01:17:01;;;;;;;5.13;4.82;;;20.80;97.30;;;;;;5042946;28;20190;-86
2022/06/26 01:19:28;;;;;;;5.38;5.10;;;20.80;96.90;;;;;;5023990;28;20222;-87
2022/06/26 01:21:54;;;;;;;5.18;4.78;;;20.80;97.50;;;;;;5034890;28;20211;-87
2022/06/26 01:24:19;;;;;;;4.85;4.65;;;20.80;95.70;;;;;;5043829;28;20277;-87
2022/06/26 01:26:45;;;;;;;4.63;4.32;;;20.70;95.60;;;;;;5028701;28;20463;-86
2022/06/26 01:29:11;;;;;;;5.50;4.85;;;20.70;95.80;;;;;;5032618;28;20276;-87
2022/06/26 01:31:37;;;;;;;5.05;4.75;;;20.80;95.10;;;;;;5037941;28;20188;-87
2022/06/26 01:34:09;;;;;;;5.07;4.88;;;20.80;94.40;;;;;;5037827;28;20194;-86
2022/06/26 01:36:36;;;;;;;4.68;4.47;;;20.80;94.80;;;;;;5031980;28;20196;-86
2022/06/26 01:39:03;;;;;;;5.18;4.78;;;20.80;94.50;;;;;;5037598;28;20677;-86
2022/06/26 01:41:28;;;;;;;5.32;4.72;;;20.70;94.50;;;;;;5038356;28;20206;-86
2022/06/26 01:43:54;;;;;;;5.22;4.82;;;20.80;95.20;;;;;;5036184;28;20211;-86
2022/06/26 01:46:22;;;;;;;4.88;4.40;;;20.70;93.50;;;;;;5037907;28;20186;-86
2022/06/26 01:48:48;;;;;;;4.70;4.28;;;20.70;93.90;;;;;;5033948;28;20209;-86
2022/06/26 01:51:13;;;;;;;5.03;4.82;;;20.60;94.60;;;;;;5032602;28;20658;-87
2022/06/26 01:53:39;;;;;;;5.10;4.80;;;20.70;94.30;;;;;;5044301;28;20178;-87
2022/06/26 01:56:06;;;;;;;5.00;4.70;;;20.70;93.80;;;;;;5044984;28;20186;-86
2022/06/26 01:58:33;;;;;;;5.53;5.20;;;20.60;92.90;;;;;;5029858;28;20194;-86
2022/06/26 02:00:59;;;;;;;5.40;5.10;;;20.60;95.40;;;;;;5037715;28;20215;-86
2022/06/26 02:03:26;;;;;;;5.05;4.75;;;20.70;93.20;;;;;;5035910;28;20684;-86
2022/06/26 02:05:52;;;;;;;4.55;4.25;;;20.70;93.90;;;;;;5029310;28;20192;-86
2022/06/26 02:08:18;;;;;;;5.32;5.13;;;20.60;92.40;;;;;;5037488;28;20183;-86
2022/06/26 02:13:39;;;;;;;5.50;5.10;;;20.50;94.40;;;;;;5030826;28;20207;-86
2022/06/26 02:16:11;;;;;;;4.72;4.50;;;20.50;94.20;;;;;;5033469;28;20185;-86
2022/06/26 02:18:43;;;;;;;5.03;4.80;;;20.50;94.60;;;;;;5030972;28;20223;-86
2022/06/26 02:21:12;;;;;;;5.10;4.80;;;20.60;93.80;;;;;;5032537;28;20210;-86
2022/06/26 02:23:39;;;;;;;4.57;4.28;;;20.70;92.30;;;;;;5035443;28;20200;-86
2022/06/26 02:26:10;;;;;;;4.75;4.55;;;21.00;91.80;;;;;;5033838;28;20181;-86
2022/06/26 02:28:37;;;;;;;5.15;4.85;;;21.10;90.30;;;;;;5038177;28;20195;-86
2022/06/26 02:31:03;;;;;;;4.63;4.32;;;21.30;88.80;;;;;;5035302;28;20645;-86
2022/06/26 02:33:29;;;;;;;4.95;4.70;;;21.40;89.00;;;;;;5035445;28;20189;-86
2022/06/26 02:35:55;;;;;;;4.82;4.45;;;21.40;88.60;;;;;;5036804;28;20193;-86
2022/06/26 02:38:24;;;;;;;4.85;4.65;;;21.50;90.00;;;;;;5033669;28;20185;-86
2022/06/26 02:40:51;;;;;;;5.40;5.03;;;21.50;91.70;;;;;;5029054;28;20247;-86
2022/06/26 02:43:18;;;;;;;5.38;4.97;;;21.50;92.20;;;;;;5035002;28;20194;-86
2022/06/26 02:45:44;;;;;;;4.88;4.63;;;21.50;91.00;;;;;;5029903;28;20272;-86
2022/06/26 02:48:11;;;;;;;4.55;4.35;;;21.60;90.10;;;;;;5039698;28;20180;-86
2022/06/26 02:50:36;;;;;;;4.55;4.15;;;21.60;91.00;;;;;;5032541;28;20722;-86
2022/06/26 02:53:04;;;;;;;4.72;4.43;;;21.50;91.50;;;;;;5039235;28;20181;-86
2022/06/26 02:55:31;;;;;;;4.63;4.32;;;21.40;91.50;;;;;;5032996;28;20196;-86
2022/06/26 02:57:56;;;;;;;4.70;4.47;;;21.30;91.30;;;;;;5032509;28;20185;-86
2022/06/26 03:00:22;;;;;;;4.60;4.40;;;21.40;91.70;;;;;;5031132;28;20267;-85
2022/06/26 03:02:48;;;;;;;4.30;4.10;;;21.40;90.90;;;;;;5029830;28;20269;-86
2022/06/26 03:05:13;;;;;;;4.70;4.38;;;21.50;89.80;;;;;;5029189;28;20201;-86
2022/06/26 03:07:39;;;;;;;4.07;3.80;;;21.50;89.00;;;;;;5031396;28;20200;-86
2022/06/26 03:10:06;;;;;;;4.20;4.00;;;21.60;88.80;;;;;;5033588;28;20209;-86
2022/06/26 03:12:32;;;;;;;4.20;4.00;;;21.70;88.00;;;;;;5031071;28;20189;-86
2022/06/26 03:14:57;;;;;;;4.93;4.30;;;21.70;87.60;;;;;;5030710;28;20754;-86
2022/06/26 03:17:24;;;;;;;4.15;3.85;;;21.50;88.70;;;;;;5025979;28;20189;-87
2022/06/26 03:19:50;;;;;;;4.70;4.50;;;21.60;89.10;;;;;;5033671;28;20228;-86
2022/06/26 03:22:16;;;;;;;4.55;4.25;;;21.50;88.90;;;;;;5036206;28;20219;-86
2022/06/26 03:24:42;;;;;;;5.10;4.57;;;21.50;88.90;;;;;;5036198;28;20197;-86
2022/06/26 03:27:08;;;;;;;4.82;4.53;;;21.30;89.50;;;;;;5025800;28;20186;-87
2022/06/26 03:29:33;;;;;;;4.53;4.22;;;21.30;89.20;;;;;;5029310;28;20261;-86
2022/06/26 03:31:59;;;;;;;4.45;4.25;;;21.30;89.30;;;;;;5029647;28;20185;-86
2022/06/26 03:34:25;;;;;;;4.90;4.28;;;21.40;88.40;;;;;;5038682;28;20193;-87
2022/06/26 03:36:51;;;;;;;4.90;4.40;;;21.20;89.40;;;;;;5021183;28;20197;-86
2022/06/26 03:39:17;;;;;;;4.93;3.80;;;21.20;89.30;;;;;;5029256;28;20222;-87
2022/06/26 03:41:57;;;;;;;4.90;4.57;;;21.20;89.80;;;;;;5034835;28;20205;-87
2022/06/26 03:44:24;;;;;;;4.30;4.03;;;21.30;89.90;;;;;;5038788;28;20184;-86
2022/06/26 03:46:50;;;;;;;3.92;3.72;;;21.30;89.80;;;;;;5023906;28;20213;-87
2022/06/26 03:49:16;;;;;;;4.03;3.83;;;21.30;89.30;;;;;;5050309;28;20200;-87
2022/06/26 03:51:41;;;;;;;4.55;4.25;;;21.30;89.50;;;;;;5040560;28;20188;-86
2022/06/26 03:54:07;;;;;;;4.00;3.80;;;21.30;90.00;;;;;;5031571;28;20546;-87
2022/06/26 03:56:33;;;;;;;3.85;3.65;;;21.20;90.60;;;;;;5035462;28;20203;-86
2022/06/26 03:58:58;;;;;;;4.38;4.15;;;21.20;90.30;;;;;;5033541;28;20219;-88
2022/06/26 04:01:24;;;;;;;4.10;3.90;;;21.20;90.80;;;;;;5035189;28;20212;-86
2022/06/26 04:03:50;;;;;;;3.55;3.35;;;21.20;89.70;;;;;;5027171;28;20185;-87
2022/06/26 04:06:15;;;;;;;3.90;3.70;;;21.20;89.80;;;;;;5030179;28;20189;-87
2022/06/26 04:08:41;;;;;;;4.57;4.15;;;21.20;89.60;;;;;;5036259;28;20204;-86
2022/06/26 04:11:07;;;;;;;4.82;4.63;;;21.20;90.00;;;;;;5029490;28;20560;-87
2022/06/26 04:13:32;;;;;;;4.97;4.05;;;21.20;90.50;;;;;;5033277;28;20311;-87
2022/06/26 04:15:58;;;;;;;4.80;4.32;;;21.10;90.50;;;;;;5030169;28;20196;-87
2022/06/26 04:18:24;;;;;;;4.43;4.13;;;21.20;90.10;;;;;;5030421;28;20193;-87
2022/06/26 04:20:50;;;;;;;4.18;3.97;;;21.20;90.30;;;;;;5034803;28;20223;-87
2022/06/26 04:23:16;;;;;;;4.80;4.50;;;21.30;89.80;;;;;;5039105;28;20287;-87
2022/06/26 04:25:42;;;;;;;4.05;3.78;;;21.40;89.30;;;;;;5022750;28;20204;-86
2022/06/26 04:28:09;;;;;;;5.05;4.60;;;21.40;89.10;;;;;;5041241;28;20204;-88
2022/06/26 04:30:35;;;;;;;4.93;4.38;;;21.40;89.10;;;;;;5044425;28;20212;-87
2022/06/26 04:33:01;;;;;;;4.90;4.50;;;21.40;89.50;;;;;;5026648;28;20188;-87
2022/06/26 04:35:27;;;;;;;4.05;3.85;;;21.30;89.70;;;;;;5040749;28;20193;-84
2022/06/26 04:37:52;;;;;;;4.80;4.50;;;21.10;91.30;;;;;;5040423;28;20195;-87
2022/06/26 04:40:18;;;;;;;4.90;4.47;;;21.10;91.20;;;;;;5035814;28;20688;-85
2022/06/26 04:42:44;;;;;;;4.88;4.60;;;20.90;92.20;;;;;;5045836;28;20188;-85
2022/06/26 04:45:11;;;;;;;4.35;4.05;;;20.90;92.80;;;;;;5035462;28;20189;-84
2022/06/26 04:47:37;;;;;;;4.50;4.15;;;20.90;92.20;;;;;;5041667;28;20830;-85
2022/06/26 04:50:04;;;;;;;4.10;3.90;;;20.80;92.50;;;;;;5040302;28;20201;-86
2022/06/26 04:52:30;;;;;;;4.05;3.85;;;20.90;92.60;;;;;;5026263;28;20260;-86
2022/06/26 04:54:55;;;;;;;4.53;4.22;;;20.80;92.50;;;;;;5039214;28;20217;-85
2022/06/26 04:57:22;;;;;;;4.18;3.97;;;20.80;92.80;;;;;;5038552;28;20189;-85
2022/06/26 04:59:48;;;;;;;4.85;4.55;;;20.80;93.10;;;;;;5029852;28;20208;-86
2022/06/26 05:02:13;;;;;;;4.47;4.22;;;20.70;93.60;;;;;;5035087;28;20209;-85
2022/06/26 05:04:39;;;;;;;4.78;4.47;;;20.70;92.50;;;;;;5034139;28;20184;-85
2022/06/26 05:07:05;;;;;;;5.05;4.82;;;20.70;93.20;;;;;;5041393;28;20184;-85
2022/06/26 05:09:31;;;;;;;4.80;4.50;;;20.60;93.90;;;;;;5032242;28;20726;-85
2022/06/26 05:11:58;;;;;;;4.82;4.55;;;20.50;94.00;;;;;;5040664;28;20189;-85
2022/06/26 05:14:24;;;;;;;5.93;5.53;;;20.30;96.00;;;;;;5036101;28;20189;-86
2022/06/26 05:16:50;;;;;;;5.55;5.25;;;20.10;97.50;;;;;;5043658;28;20791;-85
2022/06/26 05:19:16;;;;;;;5.55;5.25;;;20.20;97.20;;;;;;5039790;28;20285;-85
2022/06/26 05:21:42;;;;;;;5.65;5.35;;;20.20;96.80;;;;;;5042244;28;20684;-85
2022/06/26 05:24:08;;;;;;;5.70;5.30;;;20.20;96.20;;;;;;5037242;28;20195;-85
2022/06/26 05:26:34;;;;;;;5.50;5.20;;;20.30;95.50;;;;;;5034266;28;20215;-86
2022/06/26 05:29:00;;;;;;;5.88;5.57;;;20.50;95.00;;;;;;5035308;28;20213;-85
2022/06/26 05:31:26;;;;;;;5.47;5.18;;;20.40;94.90;;;;;;5025022;28;20192;-85
2022/06/26 05:33:52;;;;;;;4.93;4.63;;;20.30;95.50;;;;;;5041355;28;20203;-86
2022/06/26 05:36:18;;;;;;;6.07;5.78;;;20.30;95.50;;;;;;5035994;28;20248;-85
2022/06/26 05:38:44;;;;;;;5.60;5.20;;;20.50;94.80;;;;;;5035992;28;20211;-88
2022/06/26 05:41:10;;;;;;;4.90;4.63;;;20.50;93.70;;;;;;5038429;28;20335;-87
2022/06/26 05:43:36;;;;;;;5.38;5.18;;;20.50;94.20;;;;;;5042525;28;20231;-86
2022/06/26 05:46:02;;;;;;;6.15;5.40;;;20.60;94.00;;;;;;5040907;28;20728;-85
2022/06/26 05:48:28;;;;;;;5.22;4.85;;;20.60;95.10;;;;;;5041581;28;20178;-86
2022/06/26 05:50:54;;;;;;;5.80;5.40;;;20.70;93.40;;;;;;5042322;28;20661;-86
2022/06/26 05:53:22;;;;;;;5.50;5.20;;;20.90;92.70;;;;;;5042047;28;20274;-86
2022/06/26 05:55:48;;;;;;;5.82;5.50;;;21.00;92.50;;;;;;5043590;28;20188;-85
2022/06/26 05:58:14;;;;;;;5.85;5.45;;;21.10;91.90;;;;;;5039022;28;20256;-85
2022/06/26 06:00:40;;;;;;;5.10;4.80;;;21.10;92.00;;;;;;5039449;28;20213;-87
2022/06/26 06:03:07;;;;;;;5.47;5.22;;;21.30;91.30;;;;;;5038475;28;20216;-86
2022/06/26 06:05:33;;;;;;;5.15;4.85;;;21.40;90.80;;;;;;5042613;28;20177;-87
2022/06/26 06:08:00;;;;;;;6.00;5.57;;;21.60;91.00;;;;;;5042020;28;20191;-86
2022/06/26 06:10:27;;;;;;;6.10;5.68;;;21.40;91.40;;;;;;5033810;28;20263;-86
2022/06/26 06:12:54;;;;;;;5.60;5.25;;;21.40;91.30;;;;;;5038315;28;20196;-86
2022/06/26 06:15:20;;;;;;;4.97;4.78;;;21.20;92.70;;;;;;5039769;28;20199;-87
2022/06/26 06:17:46;;;;;;;6.97;6.47;;;21.20;92.70;;;;;;5038690;28;20242;-86
2022/06/26 06:20:19;;;;;;;5.38;5.07;;;21.40;91.30;;;;;;5053149;28;20322;-86
2022/06/26 06:22:48;;;;;;;5.65;5.35;;;21.30;91.80;;;;;;5040757;28;20218;-87
2022/06/26 06:25:13;;;;;;;5.88;5.47;;;21.20;92.50;;;;;;5041653;28;20253;-86
2022/06/26 06:27:40;;;;;;;5.35;5.05;;;21.40;92.20;;;;;;5041947;28;20233;-87
2022/06/26 06:30:08;;;;;;;5.80;5.40;;;21.40;92.50;;;;;;5041472;28;20201;-87
2022/06/26 06:32:34;;;;;;;5.68;5.30;;;21.30;92.30;;;;;;5042276;28;20184;-87
2022/06/26 06:35:00;;;;;;;5.88;5.57;;;21.40;92.90;;;;;;5036443;28;20255;-87
2022/06/26 06:37:26;;;;;;;5.38;4.97;;;21.50;91.70;;;;;;5040312;28;20231;-87
2022/06/26 06:39:52;;;;;;;5.88;5.38;;;21.50;90.10;;;;;;5040282;28;20204;-88
2022/06/26 06:42:18;;;;;;;5.20;4.90;;;21.70;88.80;;;;;;5041546;28;20235;-87
2022/06/26 06:44:43;;;;;;;5.90;5.53;;;21.70;86.50;;;;;;5041284;28;20659;-88
2022/06/26 06:47:09;;;;;;;5.38;5.07;;;21.80;87.00;;;;;;5039982;28;20194;-86
2022/06/26 06:49:35;;;;;;;5.75;5.30;;;21.90;87.50;;;;;;5038668;28;20694;-87
2022/06/26 06:52:01;;;;;;;5.32;5.00;;;21.80;87.10;;;;;;5034670;28;20199;-87
2022/06/26 06:54:28;;;;;;;5.28;5.05;;;21.70;87.40;;;;;;5037445;28;20193;-86
2022/06/26 06:56:53;;;;;;;5.88;5.47;;;21.70;89.60;;;;;;5038822;28;20189;-86
2022/06/26 06:59:19;;;;;;;6.53;5.88;;;21.80;88.00;;;;;;5033548;28;20200;-86
2022/06/26 07:01:45;;;;;;;6.03;5.72;;;21.90;88.40;;;;;;5034465;28;20201;-86
2022/06/26 07:04:11;;;;;;;5.30;5.00;;;22.00;87.20;;;;;;5035231;28;20238;-86
2022/06/26 07:06:37;;;;;;;6.00;5.53;;;22.10;85.70;;;;;;5031793;28;20663;-86
2022/06/26 07:09:03;;;;;;;5.22;5.00;;;22.00;86.10;;;;;;5035934;28;20278;-86
2022/06/26 07:11:29;;;;;;;5.45;5.05;;;22.00;86.80;;;;;;5035975;28;20227;-86
2022/06/26 07:13:55;;;;;;;5.07;4.63;;;22.10;86.00;;;;;;5034327;28;20196;-87
2022/06/26 07:16:21;;;;;;;5.28;4.88;;;22.20;84.60;;;;;;5031940;28;20275;-86
2022/06/26 07:18:47;;;;;;;4.88;4.65;;;22.10;85.80;;;;;;5037161;28;20220;-86
2022/06/26 07:21:13;;;;;;;5.38;5.10;;;22.10;86.70;;;;;;5037932;28;20209;-86
2022/06/26 07:23:38;;;;;;;5.47;5.13;;;22.30;85.90;;;;;;5039425;28;20192;-86
2022/06/26 07:26:04;;;;;;;4.80;4.40;;;22.50;85.90;;;;;;5032316;28;20203;-86
2022/06/26 07:28:30;;;;;;;4.38;4.18;;;22.80;83.70;;;;;;5035428;28;20200;-85
2022/06/26 07:30:56;;;;;;;4.25;4.05;;;22.80;82.90;;;;;;5037517;28;20191;-86
2022/06/26 07:36:06;;;;;;;3.78;3.58;;;23.10;81.00;;;;;;5035144;28;20200;-86
2022/06/26 07:38:32;;;;;;;4.90;3.72;;;23.10;81.00;;;;;;5029679;28;20181;-86
2022/06/26 07:40:57;;;;;;;4.50;4.30;;;23.10;79.80;;;;;;5038420;28;20199;-86
2022/06/26 07:43:23;;;;;;;5.20;4.85;;;23.20;80.50;;;;;;5037945;28;20182;-85
2022/06/26 07:45:49;;;;;;;4.43;4.22;;;23.20;79.10;;;;;;5039629;28;20224;-86
2022/06/26 07:48:15;;;;;;;5.68;4.55;;;23.30;77.30;;;;;;5034177;28;20186;-86
2022/06/26 07:50:41;;;;;;;5.18;4.88;;;23.30;78.10;;;;;;5034534;28;20232;-85
2022/06/26 07:53:07;;;;;;;4.75;4.45;;;23.40;76.40;;;;;;5037622;28;20192;-86
2022/06/26 07:55:32;;;;;;;4.65;4.25;;;23.40;76.70;;;;;;5039654;28;20196;-86
2022/06/26 07:57:58;;;;;;;5.07;4.78;;;23.40;78.00;;;;;;5040314;28;20276;-86
2022/06/26 08:00:24;;;;;;;4.90;4.70;;;23.60;77.20;;;;;;5039045;28;20311;-86
2022/06/26 08:02:50;;;;;;;5.10;4.80;;;23.70;77.10;;;;;;5037801;28;20185;-85
2022/06/26 08:05:17;;;;;;;5.30;4.88;;;23.60;78.40;;;;;;5040533;28;20196;-86
2022/06/26 08:07:42;;;;;;;5.72;5.43;;;23.50;77.90;;;;;;5023613;28;20204;-86
2022/06/26 08:10:09;;;;;;;5.45;5.05;;;23.50;78.60;;;;;;5039866;28;20204;-86
2022/06/26 08:12:35;;;;;;;7.65;7.15;;;23.10;80.10;;;;;;5036317;28;20210;-85
2022/06/26 08:15:02;;;;;;;6.18;5.88;;;22.80;82.20;;;;;;5044751;28;20687;-86
2022/06/26 08:17:27;;;;;;;5.90;5.60;;;22.90;81.90;;;;;;5035642;28;20304;-87
2022/06/26 08:19:53;;;;;;;4.65;4.35;;;23.20;80.90;;;;;;5029777;28;20707;-87
2022/06/26 08:22:19;;;;;;;5.20;4.90;;;23.40;81.20;;;;;;5029271;28;20217;-87
2022/06/26 08:24:44;;;;;;;4.88;4.63;;;23.60;80.30;;;;;;5028933;28;20627;-86
2022/06/26 08:27:10;;;;;;;4.47;4.28;;;23.90;79.20;;;;;;5033292;28;20176;-87
2022/06/26 08:29:37;;;;;;;5.38;5.07;;;24.10;77.20;;;;;;5043030;28;20204;-87
2022/06/26 08:32:03;;;;;;;5.47;5.18;;;24.20;78.00;;;;;;5028113;28;20193;-87
2022/06/26 08:34:29;;;;;;;5.40;5.10;;;24.30;76.70;;;;;;5029778;28;20193;-87
2022/06/26 08:36:55;;;;;;;5.15;4.85;;;24.60;74.40;;;;;;5032076;28;20181;-87
2022/06/26 08:39:22;;;;;;;5.00;4.75;;;24.80;73.80;;;;;;5032848;28;20219;-87
2022/06/26 08:41:48;;;;;;;5.60;5.20;;;25.10;72.90;;;;;;5035987;28;20205;-87
2022/06/26 08:44:15;;;;;;;5.10;4.63;;;25.30;71.10;;;;;;5032339;28;20259;-87
2022/06/26 08:46:43;;;;;;;6.35;5.95;;;25.40;71.80;;;;;;5030379;28;20192;-87
2022/06/26 08:49:13;;;;;;;4.93;4.63;;;25.10;70.90;;;;;;5032477;28;20212;-86
2022/06/26 08:51:40;;;;;;;5.03;4.57;;;24.80;71.60;;;;;;5028117;28;20189;-87
2022/06/26 08:54:12;;;;;;;5.40;5.10;;;24.70;71.20;;;;;;5035515;28;20208;-88
2022/06/26 08:56:41;;;;;;;5.15;4.95;;;24.50;72.80;;;;;;5031690;28;20196;-88
2022/06/26 08:59:07;;;;;;;5.95;5.65;;;24.50;73.80;;;;;;5037459;28;20225;-87
2022/06/26 09:01:35;;;;;;;5.13;4.82;;;24.70;72.50;;;;;;5033869;28;20245;-87
2022/06/26 09:04:01;;;;;;;4.88;4.68;;;24.50;71.60;;;;;;5033062;28;20193;-88
2022/06/26 09:06:26;;;;;;;5.70;5.30;;;24.50;73.00;;;;;;5032202;28;20189;-86
2022/06/26 09:08:52;;;;;;;6.47;6.18;;;24.80;71.40;;;;;;5027387;28;20219;-88
2022/06/26 09:11:19;;;;;;;5.43;5.03;;;25.20;69.20;;;;;;5036288;28;20181;-88
2022/06/26 09:13:45;;;;;;;6.18;5.85;;;25.50;67.60;;;;;;5039540;28;20189;-88
2022/06/26 09:16:14;;;;;;;5.70;5.40;;;25.90;66.00;;;;;;5039834;28;20564;-86
2022/06/26 09:18:41;;;;;;;6.35;6.05;;;26.10;65.00;;;;;;5041101;28;20220;-87
2022/06/26 09:21:09;;;;;;;5.97;5.68;;;26.00;66.80;;;;;;5033458;28;20245;-87
2022/06/26 09:23:37;;;;;;;6.82;6.43;;;26.20;65.50;;;;;;5032512;28;20185;-87
2022/06/26 09:26:04;;;;;;;6.75;6.50;;;26.30;63.10;;;;;;5044206;28;20181;-87
2022/06/26 09:28:30;;;;;;;7.18;6.88;;;26.40;63.60;;;;;;5034491;28;20718;-87
2022/06/26 09:30:57;;;;;;;6.63;6.32;;;26.50;61.10;;;;;;5038860;28;20193;-87
2022/06/26 09:33:34;;;;;;;6.50;6.00;;;26.50;62.10;;;;;;5039821;28;20272;-88
2022/06/26 09:36:02;;;;;;;6.28;5.97;;;26.70;59.50;;;;;;5040070;28;20203;-87
2022/06/26 09:38:31;;;;;;;5.40;5.20;;;26.90;59.60;;;;;;5040754;28;20193;-87
2022/06/26 09:41:03;;;;;;;6.15;5.85;;;26.80;60.40;;;;;;5040230;28;20227;-88
2022/06/26 09:43:35;;;;;;;6.40;6.10;;;27.00;61.30;;;;;;5042108;28;20204;-87
2022/06/26 09:46:07;;;;;;;6.03;5.72;;;27.00;60.10;;;;;;5036456;28;20177;-86
2022/06/26 09:48:33;;;;;;;7.28;6.82;;;27.10;61.00;;;;;;5032761;28;20209;-87
2022/06/26 09:51:00;;;;;;;7.22;6.82;;;27.10;59.20;;;;;;5027516;28;20248;-87
2022/06/26 09:53:28;;;;;;;7.68;7.38;;;27.00;58.30;;;;;;5038508;28;20201;-87
2022/06/26 09:55:55;;;;;;;6.95;6.65;;;26.80;58.20;;;;;;5036667;28;20193;-88
2022/06/26 09:58:22;;;;;;;7.13;6.82;;;26.50;60.00;;;;;;5034542;28;20241;-87
2022/06/26 10:06:31;;;;;;;7.50;7.20;;;26.70;60.90;;;;;;5031433;28;20211;-87
2022/06/26 10:09:03;;;;;;;6.72;6.43;;;26.80;59.90;;;;;;5039049;28;20239;-88
2022/06/26 10:11:30;;;;;;;8.07;7.70;;;26.70;58.80;;;;;;5042723;28;20216;-87
2022/06/26 10:14:26;;;;;;;7.72;7.20;;;26.70;62.10;;;;;;5042572;28;20224;-88
2022/06/26 10:17:29;;;;;;;5.97;5.78;;;26.70;61.10;;;;;;5036255;28;20192;-88
2022/06/26 10:19:56;;;;;;;6.57;6.28;;;26.50;60.70;;;;;;5033330;28;20222;-87
2022/06/26 10:22:22;;;;;;;8.07;7.47;;;26.70;60.80;;;;;;5042163;28;20193;-88
2022/06/26 10:24:50;;;;;;;8.20;7.80;;;26.80;60.40;;;;;;5040530;28;20220;-87
2022/06/26 10:27:16;;;;;;;9.00;8.60;;;27.00;59.70;;;;;;5041473;28;20177;-86
2022/06/26 10:29:41;;;;;;;8.73;8.32;;;27.20;59.40;;;;;;5028556;28;20205;-87
2022/06/26 10:32:08;;;;;;;8.45;8.15;;;27.10;59.10;;;;;;5035893;28;20204;-87
2022/06/26 10:34:35;;;;;;;7.80;7.50;;;27.20;59.90;;;;;;5036422;28;20211;-86
2022/06/26 10:37:15;;;;;;;7.72;7.43;;;27.10;59.90;;;;;;5036651;28;20215;-88
2022/06/26 10:39:49;;;;;;;7.13;6.82;;;26.70;60.50;;;;;;5041142;28;20853;-86
2022/06/26 10:45:11;;;;;;;6.47;6.18;;;26.40;59.90;;;;;;5033518;28;20187;-87
2022/06/26 10:47:54;;;;;;;5.65;5.32;;;26.10;63.80;;;;;;5041107;28;20181;-86
2022/06/26 10:50:24;;;;;;;5.20;4.80;;;26.10;63.30;;;;;;5041125;28;20201;-87
2022/06/26 10:52:50;;;;;;;5.00;4.80;;;26.10;62.90;;;;;;5037344;28;20177;-86
2022/06/26 10:55:16;;;;;;;5.30;5.00;;;26.40;61.70;;;;;;5028392;28;20205;-86
2022/06/26 10:57:42;;;;;;;7.03;6.72;;;26.70;59.80;;;;;;5038376;28;20177;-86
2022/06/26 11:00:12;;;;;;;6.90;6.60;;;26.90;59.20;;;;;;5039551;28;20205;-87
2022/06/26 11:02:47;;;;;;;7.45;7.05;;;27.30;59.60;;;;;;5034818;28;20189;-86
2022/06/26 11:05:14;;;;;;;6.85;6.55;;;27.40;58.90;;;;;;5040572;28;20195;-87
2022/06/26 11:07:49;;;;;;;8.32;7.95;;;27.40;59.00;;;;;;5043124;28;20683;-87
2022/06/26 11:10:20;;;;;;;7.85;7.45;;;27.50;58.00;;;;;;5034720;28;20568;-87
2022/06/26 11:12:48;;;;;;;9.38;8.98;;;27.40;57.90;;;;;;5040131;28;20181;-87
2022/06/26 11:15:19;;;;;;;8.45;8.15;;;27.30;59.50;;;;;;5041573;28;20181;-87
2022/06/26 11:17:57;;;;;;;7.82;7.43;;;27.20;59.60;;;;;;5036203;28;20184;-86
2022/06/26 11:23:25;;;;;;;8.65;8.25;;;27.30;59.90;;;;;;5030112;28;20206;-87
2022/06/26 11:26:08;;;;;;;8.45;8.15;;;27.50;58.90;;;;;;5031111;28;20177;-87
2022/06/26 11:28:39;;;;;;;8.43;8.13;;;27.70;57.00;;;;;;5026867;28;20204;-89
2022/06/26 11:31:10;;;;;;;8.80;8.40;;;27.80;56.70;;;;;;5025657;28;20197;-87
2022/06/26 11:33:37;;;;;;;7.95;7.55;;;28.00;57.10;;;;;;5038338;28;20232;-87
2022/06/26 11:36:05;;;;;;;8.32;8.02;;;27.80;55.90;;;;;;5041636;28;20788;-87
2022/06/26 11:38:32;;;;;;;7.65;7.35;;;27.70;56.90;;;;;;5034410;28;20185;-87
2022/06/26 11:41:03;;;;;;;8.30;8.00;;;28.10;57.40;;;;;;5040649;28;20263;-87
2022/06/26 11:43:29;;;;;;;8.43;8.00;;;28.20;55.30;;;;;;5039100;28;20559;-88
2022/06/26 11:45:59;;;;;;;8.88;8.48;;;28.20;55.40;;;;;;5029916;28;20192;-87
2022/06/26 11:48:25;;;;;;;9.95;9.55;;;28.50;53.80;;;;;;5038915;28;20194;-87
2022/06/26 11:50:54;;;;;;;9.10;8.70;;;28.60;54.30;;;;;;5036140;28;20190;-88
2022/06/26 11:53:24;;;;;;;9.32;8.85;;;29.10;53.60;;;;;;5037906;28;20257;-89
2022/06/26 11:55:53;;;;;;;8.57;8.27;;;29.30;52.00;;;;;;5045837;28;20211;-88
2022/06/26 11:58:23;;;;;;;10.38;9.98;;;29.70;49.00;;;;;;5021169;28;20186;-87
2022/06/26 12:00:49;;;;;;;10.82;10.43;;;29.20;50.40;;;;;;5030779;28;20228;-87
2022/06/26 12:03:15;;;;;;;10.80;10.40;;;28.80;50.40;;;;;;5032243;28;20308;-87
2022/06/26 12:05:45;;;;;;;11.40;10.90;;;29.00;51.60;;;;;;5038746;28;20212;-88
2022/06/26 12:08:19;;;;;;;11.27;10.88;;;29.40;49.20;;;;;;5035455;28;20588;-89
2022/06/26 12:10:50;;;;;;;10.77;10.38;;;29.80;48.10;;;;;;5031860;28;20205;-87
2022/06/26 12:13:29;;;;;;;11.35;10.95;;;30.10;48.90;;;;;;5046808;28;20725;-87
2022/06/26 12:16:08;;;;;;;11.82;11.23;;;30.20;49.10;;;;;;5042114;28;20231;-87
2022/06/26 12:18:39;;;;;;;10.50;10.10;;;29.90;49.50;;;;;;5038087;28;20184;-88
2022/06/26 12:21:34;;;;;;;11.35;10.85;;;29.40;50.20;;;;;;5037817;28;20216;-88
2022/06/26 12:24:00;;;;;;;12.05;11.60;;;30.00;50.90;;;;;;5036757;28;20213;-87
2022/06/26 12:26:28;;;;;;;12.05;11.55;;;29.90;49.40;;;;;;5036398;28;20204;-88
2022/06/26 12:29:01;;;;;;;11.15;10.75;;;29.90;49.00;;;;;;5032078;28;21228;-87
2022/06/26 12:31:27;;;;;;;10.82;10.43;;;30.20;49.50;;;;;;5038173;28;20189;-87
2022/06/26 12:33:53;;;;;;;10.65;10.18;;;30.30;46.90;;;;;;5034667;28;20272;-88
2022/06/26 12:36:19;;;;;;;11.23;10.82;;;30.50;46.80;;;;;;5034143;28;20198;-87
2022/06/26 12:38:46;;;;;;;11.05;10.55;;;30.50;45.90;;;;;;5040349;28;20665;-88
2022/06/26 12:41:19;;;;;;;11.73;11.23;;;30.60;46.80;;;;;;5026731;28;20204;-87
2022/06/26 12:43:50;;;;;;;11.57;11.02;;;30.50;47.60;;;;;;5035307;28;20217;-89
2022/06/26 12:46:16;;;;;;;11.90;11.50;;;30.50;48.00;;;;;;5035586;28;20181;-87
2022/06/26 12:48:43;;;;;;;12.15;11.65;;;30.50;47.80;;;;;;5034528;28;20319;-87
2022/06/26 12:51:09;;;;;;;11.40;10.98;;;30.50;48.10;;;;;;5036003;28;20192;-88
2022/06/26 12:53:35;;;;;;;12.07;11.68;;;30.60;48.70;;;;;;5039102;28;20197;-89
2022/06/26 12:56:01;;;;;;;11.20;10.73;;;30.90;47.50;;;;;;5034230;28;20193;-87
2022/06/26 12:58:27;;;;;;;12.88;12.23;;;31.30;45.30;;;;;;5034655;28;20195;-86
2022/06/26 13:00:54;;;;;;;11.98;11.57;;;31.20;46.00;;;;;;5031568;28;20212;-86
2022/06/26 13:03:21;;;;;;;12.95;12.38;;;31.20;47.00;;;;;;5028770;28;20544;-87